createdAt,value
2022-08-23T00:00:40.992Z,83.17
2022-08-23T00:01:40.413Z,83.37
2022-08-23T00:02:40.401Z,83.06
2022-08-23T00:03:40.394Z,82.76
2022-08-23T00:04:40.393Z,82.76
2022-08-23T00:05:41.040Z,83.17
2022-08-23T00:06:40.366Z,83.26
2022-08-23T00:07:40.366Z,83.37
2022-08-23T00:08:40.320Z,83.57
2022-08-23T00:09:40.989Z,83.76
2022-08-23T00:10:40.337Z,84.11
2022-08-23T00:11:40.307Z,84.21
2022-08-23T00:12:40.408Z,84.01
2022-08-23T00:13:47.312Z,84.31
2022-08-23T00:14:41.754Z,84.41
2022-08-23T00:15:39.780Z,84.61
2022-08-23T00:16:39.756Z,84.61
2022-08-23T00:17:39.838Z,84.81
2022-08-23T00:18:39.758Z,84.81
2022-08-23T00:19:39.718Z,85.02
2022-08-23T00:20:39.716Z,84.81
2022-08-23T00:21:40.535Z,85.11
2022-08-23T00:22:39.742Z,84.91
2022-08-23T00:23:39.713Z,85.02
2022-08-23T00:24:41.009Z,84.61
2022-08-23T00:25:39.684Z,84.91
2022-08-23T00:26:39.685Z,85.02
2022-08-23T00:27:39.656Z,84.91
2022-08-23T00:28:41.569Z,84.81
2022-08-23T00:29:39.565Z,84.71
2022-08-23T00:30:39.584Z,84.81
2022-08-23T00:31:39.573Z,84.91
2022-08-23T00:32:39.622Z,85.11
2022-08-23T00:33:39.555Z,85.62
2022-08-23T00:34:39.554Z,85.72
2022-08-23T00:35:39.547Z,85.72
2022-08-23T00:36:39.647Z,86.22
2022-08-23T00:37:39.566Z,85.62
2022-08-23T00:38:42.119Z,86.22
2022-08-23T00:39:39.583Z,85.92
2022-08-23T00:40:39.415Z,85.92
2022-08-23T00:41:39.428Z,86.02
2022-08-23T00:42:39.407Z,86.32
2022-08-23T00:43:39.428Z,86.43
2022-08-23T00:44:39.367Z,86.22
2022-08-23T00:45:39.739Z,86.02
2022-08-23T00:46:39.373Z,86.63
2022-08-23T00:47:39.319Z,86.22
2022-08-23T00:48:39.442Z,86.43
2022-08-23T00:49:39.343Z,85.72
2022-08-23T00:50:39.510Z,85.92
2022-08-23T00:51:50.692Z,85.92
2022-08-23T00:52:41.145Z,86.22
2022-08-23T00:53:39.404Z,86.43
2022-08-23T00:54:39.199Z,85.62
2022-08-23T00:55:39.200Z,85.82
2022-08-23T00:56:39.371Z,86.12
2022-08-23T00:57:39.183Z,85.92
2022-08-23T00:58:39.181Z,86.22
2022-08-23T00:59:40.116Z,85.92
2022-08-23T01:00:39.191Z,86.63
2022-08-23T01:01:39.390Z,86.43
2022-08-23T01:02:39.266Z,86.02
2022-08-23T01:03:39.194Z,85.82
2022-08-23T01:04:40.371Z,86.22
2022-08-23T01:05:39.132Z,85.62
2022-08-23T01:06:39.075Z,86.12
2022-08-23T01:07:39.081Z,86.02
2022-08-23T01:08:39.172Z,85.82
2022-08-23T01:09:39.176Z,86.02
2022-08-23T01:10:39.007Z,86.02
2022-08-23T01:11:39.039Z,85.92
2022-08-23T01:12:39.104Z,86.22
2022-08-23T01:13:39.016Z,85.92
2022-08-23T01:14:39.002Z,86.43
2022-08-23T01:15:38.958Z,86.52
2022-08-23T01:16:39.117Z,87.02
2022-08-23T01:17:38.967Z,86.83
2022-08-23T01:18:38.944Z,86.32
2022-08-23T01:19:38.970Z,86.83
2022-08-23T01:20:38.905Z,86.63
2022-08-23T01:21:41.191Z,86.43
2022-08-23T01:22:38.853Z,86.52
2022-08-23T01:23:38.826Z,86.43
2022-08-23T01:25:07.784Z,86.72
2022-08-23T01:25:39.788Z,86.93
2022-08-23T01:26:38.910Z,86.63
2022-08-23T01:27:38.738Z,86.83
2022-08-23T01:28:38.931Z,86.83
2022-08-23T01:29:38.774Z,86.72
2022-08-23T01:30:39.534Z,87.02
2022-08-23T01:31:38.679Z,86.83
2022-08-23T01:32:38.676Z,87.07
2022-08-23T01:33:38.658Z,86.66
2022-08-23T01:34:45.835Z,86.97
2022-08-23T01:35:39.626Z,87.27
2022-08-23T01:36:38.756Z,87.47
2022-08-23T01:37:38.615Z,87.37
2022-08-23T01:38:38.700Z,87.57
2022-08-23T01:39:38.557Z,87.27
2022-08-23T01:40:38.581Z,87.17
2022-08-23T01:41:38.602Z,87.47
2022-08-23T01:42:38.532Z,87.67
2022-08-23T01:43:38.553Z,87.47
2022-08-23T01:44:39.493Z,87.57
2022-08-23T01:45:39.089Z,87.87
2022-08-23T01:46:38.463Z,87.57
2022-08-23T01:47:38.501Z,87.87
2022-08-23T01:48:38.452Z,87.67
2022-08-23T01:49:38.422Z,87.67
2022-08-23T01:51:38.444Z,87.87
2022-08-23T01:52:38.725Z,87.87
2022-08-23T01:53:39.400Z,88.18
2022-08-23T01:54:38.336Z,87.98
2022-08-23T01:55:38.375Z,88.18
2022-08-23T01:56:39.508Z,88.18
2022-08-23T01:57:38.356Z,88.28
2022-08-23T01:58:38.365Z,88.22
2022-08-23T01:59:39.035Z,88.22
2022-08-23T02:00:39.008Z,88.02
2022-08-23T02:01:38.371Z,88.12
2022-08-23T02:02:38.548Z,88.32
2022-08-23T02:03:38.439Z,88.22
2022-08-23T02:04:38.467Z,88.32
2022-08-23T02:05:38.299Z,88.42
2022-08-23T02:06:38.230Z,87.82
2022-08-23T02:07:38.161Z,88.32
2022-08-23T02:08:38.961Z,88.02
2022-08-23T02:09:38.821Z,88.22
2022-08-23T02:10:38.922Z,88.22
2022-08-23T02:11:38.951Z,87.92
2022-08-23T02:12:38.149Z,87.71
2022-08-23T02:13:38.283Z,87.82
2022-08-23T02:14:38.061Z,88.12
2022-08-23T02:15:38.021Z,87.82
2022-08-23T02:16:38.069Z,87.51
2022-08-23T02:17:38.012Z,87.92
2022-08-23T02:18:38.012Z,87.92
2022-08-23T02:19:37.994Z,87.51
2022-08-23T02:20:38.839Z,87.62
2022-08-23T02:21:38.025Z,87.51
2022-08-23T02:22:37.955Z,87.62
2022-08-23T02:23:38.052Z,87.41
2022-08-23T02:24:37.965Z,87.51
2022-08-23T02:25:37.927Z,87.62
2022-08-23T02:26:38.764Z,87.11
2022-08-23T02:27:38.034Z,87.41
2022-08-23T02:28:38.855Z,87.21
2022-08-23T02:29:39.085Z,87.11
2022-08-23T02:30:38.110Z,87.31
2022-08-23T02:31:37.987Z,87.62
2022-08-23T02:32:39.846Z,87.41
2022-08-23T02:33:38.026Z,87.51
2022-08-23T02:34:38.007Z,87.62
2022-08-23T02:35:38.067Z,87.31
2022-08-23T02:36:38.038Z,87.62
2022-08-23T02:37:37.743Z,87.51
2022-08-23T02:38:38.647Z,87.71
2022-08-23T02:39:38.928Z,87.51
2022-08-23T02:40:37.689Z,87.31
2022-08-23T02:41:37.670Z,86.91
2022-08-23T02:42:37.670Z,87.62
2022-08-23T02:43:40.931Z,87.62
2022-08-23T02:44:38.596Z,87.96
2022-08-23T02:45:37.613Z,87.45
2022-08-23T02:46:37.671Z,87.25
2022-08-23T02:47:38.091Z,87.65
2022-08-23T02:48:38.075Z,87.65
2022-08-23T02:49:39.571Z,87.25
2022-08-23T02:50:37.582Z,87.35
2022-08-23T02:51:37.600Z,87.15
2022-08-23T02:52:37.531Z,86.65
2022-08-23T02:53:37.793Z,86.95
2022-08-23T02:54:37.906Z,86.85
2022-08-23T02:55:37.455Z,86.95
2022-08-23T02:56:37.433Z,86.55
2022-08-23T02:57:37.440Z,87.15
2022-08-23T02:58:37.475Z,87.05
2022-08-23T02:59:37.427Z,86.85
2022-08-23T03:00:37.376Z,86.85
2022-08-23T03:01:38.236Z,87.15
2022-08-23T03:02:37.403Z,86.55
2022-08-23T03:03:37.777Z,86.65
2022-08-23T03:04:38.215Z,86.85
2022-08-23T03:05:37.308Z,86.65
2022-08-23T03:06:39.268Z,87.15
2022-08-23T03:07:37.282Z,86.44
2022-08-23T03:08:37.299Z,86.75
2022-08-23T03:09:37.228Z,86.24
2022-08-23T03:10:37.448Z,86.65
2022-08-23T03:11:37.419Z,86.44
2022-08-23T03:12:37.520Z,86.35
2022-08-23T03:13:37.308Z,86.75
2022-08-23T03:14:37.841Z,86.24
2022-08-23T03:15:37.287Z,86.65
2022-08-23T03:16:37.341Z,86.75
2022-08-23T03:17:37.485Z,86.75
2022-08-23T03:18:37.501Z,86.65
2022-08-23T03:19:37.382Z,87.05
2022-08-23T03:20:37.940Z,86.65
2022-08-23T03:21:37.652Z,87.25
2022-08-23T03:22:37.107Z,86.85
2022-08-23T03:23:37.079Z,87.55
2022-08-23T03:24:37.493Z,87.15
2022-08-23T03:25:37.247Z,87.05
2022-08-23T03:26:37.017Z,86.65
2022-08-23T03:27:38.377Z,86.55
2022-08-23T03:28:38.202Z,86.55
2022-08-23T03:29:37.604Z,86.65
2022-08-23T03:30:37.524Z,86.04
2022-08-23T03:31:37.152Z,86.15
2022-08-23T03:32:37.000Z,86.44
2022-08-23T03:33:36.896Z,86.29
2022-08-23T03:34:36.928Z,86.18
2022-08-23T03:35:36.986Z,85.98
2022-08-23T03:36:36.857Z,86.18
2022-08-23T03:37:36.946Z,86.18
2022-08-23T03:38:36.835Z,86.29
2022-08-23T03:39:36.849Z,86.29
2022-08-23T03:40:36.827Z,86.49
2022-08-23T03:41:36.848Z,86.38
2022-08-23T03:42:36.848Z,86.18
2022-08-23T03:43:36.784Z,86.38
2022-08-23T03:44:36.760Z,86.38
2022-08-23T03:45:36.849Z,86.49
2022-08-23T03:46:36.739Z,86.38
2022-08-23T03:47:36.922Z,86.63
2022-08-23T03:48:36.680Z,86.83
2022-08-23T03:49:36.729Z,86.53
2022-08-23T03:50:36.812Z,86.83
2022-08-23T03:51:36.681Z,86.93
2022-08-23T03:52:36.672Z,86.73
2022-08-23T03:53:36.881Z,87.03
2022-08-23T04:45:05.477Z,87.74
2022-08-23T04:46:04.032Z,86.93
2022-08-23T04:47:03.858Z,86.33
2022-08-23T04:48:03.823Z,86.13
2022-08-23T04:49:03.817Z,86.93
2022-08-23T04:50:03.831Z,85.82
2022-08-23T04:51:03.813Z,85.62
2022-08-23T04:52:03.788Z,85.62
2022-08-23T04:53:03.781Z,85.48
2022-08-23T04:54:03.742Z,85.08
2022-08-23T04:55:03.760Z,83.87
2022-08-23T04:56:03.760Z,84.57
2022-08-23T04:57:03.809Z,84.57
2022-08-23T04:58:03.720Z,83.87
2022-08-23T04:59:03.655Z,84.07
2022-08-23T05:00:03.717Z,83.76
2022-08-23T05:01:03.729Z,82.86
2022-08-23T05:02:03.640Z,82.96
2022-08-23T05:03:03.653Z,83.16
2022-08-23T05:04:03.752Z,81.91
2022-08-23T05:05:03.632Z,82.82
2022-08-23T05:06:04.396Z,82.71
2022-08-23T05:07:03.609Z,82.31
2022-08-23T05:08:03.586Z,82.71
2022-08-23T05:09:03.555Z,82.01
2022-08-23T05:10:03.563Z,82.31
2022-08-23T05:11:03.544Z,82.11
2022-08-23T05:12:03.499Z,82.21
2022-08-23T05:13:03.644Z,82.71
2022-08-23T05:14:03.546Z,81.71
2022-08-23T05:15:04.264Z,82.11
2022-08-23T05:16:03.479Z,82.11
2022-08-23T05:17:03.418Z,82.42
2022-08-23T05:18:04.195Z,82.68
2022-08-23T05:19:03.381Z,81.98
2022-08-23T05:20:04.330Z,81.67
2022-08-23T05:21:04.242Z,81.87
2022-08-23T05:22:03.369Z,80.66
2022-08-23T05:23:03.457Z,81.23
2022-08-23T05:24:03.840Z,80.52
2022-08-23T05:25:03.350Z,80.63
2022-08-23T05:26:03.332Z,80.52
2022-08-23T05:27:03.360Z,79.52
2022-08-23T05:28:04.090Z,80.39
2022-08-23T05:29:03.230Z,80.29
2022-08-23T05:30:03.224Z,79.79
2022-08-23T05:31:03.216Z,78.88
2022-08-23T05:32:04.046Z,79.38
2022-08-23T05:33:03.172Z,78.54
2022-08-23T05:34:03.162Z,78.14
2022-08-23T05:35:03.145Z,78.54
2022-08-23T05:36:03.142Z,77.94
2022-08-23T05:37:03.986Z,78.23
2022-08-23T05:38:03.164Z,78.64
2022-08-23T05:39:03.105Z,79.21
2022-08-23T05:40:03.107Z,78.90
2022-08-23T05:41:05.339Z,78.00
2022-08-23T05:42:03.067Z,77.59
2022-08-23T05:43:05.042Z,75.75
2022-08-23T05:44:03.062Z,75.55
2022-08-23T05:45:06.029Z,75.35
2022-08-23T05:46:03.876Z,76.02
2022-08-23T05:47:03.058Z,76.42
2022-08-23T05:48:04.044Z,75.31
2022-08-23T05:49:03.030Z,75.31
2022-08-23T05:50:02.950Z,75.48
2022-08-23T05:51:03.910Z,74.77
2022-08-23T05:52:02.891Z,75.08
2022-08-23T05:53:03.051Z,74.84
2022-08-23T05:54:03.140Z,74.80
2022-08-23T05:55:03.081Z,73.90
2022-08-23T05:56:02.861Z,72.47
2022-08-23T05:57:02.962Z,71.43
2022-08-23T05:58:02.851Z,70.50
2022-08-23T05:59:03.061Z,69.56
2022-08-23T06:00:02.870Z,68.93
2022-08-23T06:01:02.871Z,68.46
2022-08-23T06:02:03.080Z,66.96
2022-08-23T06:03:03.533Z,66.03
2022-08-23T06:04:03.696Z,65.63
2022-08-23T06:05:03.592Z,65.70
2022-08-23T06:06:02.793Z,64.60
2022-08-23T06:07:02.727Z,64.90
2022-08-23T06:08:02.971Z,64.77
2022-08-23T06:09:02.714Z,64.37
2022-08-23T06:10:02.674Z,63.94
2022-08-23T06:11:02.646Z,63.24
2022-08-23T06:12:02.636Z,63.01
2022-08-23T06:13:02.663Z,62.41
2022-08-23T06:14:02.677Z,62.51
2022-08-23T06:15:02.587Z,62.91
2022-08-23T06:16:14.448Z,62.78
2022-08-23T06:17:03.916Z,62.48
2022-08-23T06:18:02.780Z,62.05
2022-08-23T06:19:03.268Z,62.05
2022-08-23T06:20:02.596Z,62.02
2022-08-23T06:21:02.732Z,61.72
2022-08-23T06:22:02.583Z,60.63
2022-08-23T06:23:02.821Z,60.33
2022-08-23T06:24:02.532Z,60.73
2022-08-23T06:25:02.534Z,60.36
2022-08-23T06:26:02.594Z,61.52
2022-08-23T06:27:02.522Z,63.14
2022-08-23T06:28:03.092Z,64.14
2022-08-23T06:29:02.506Z,62.91
2022-08-23T06:30:02.436Z,62.61
2022-08-23T06:31:02.683Z,62.21
2022-08-23T06:32:02.333Z,62.41
2022-08-23T06:33:02.592Z,62.38
2022-08-23T06:34:02.406Z,62.55
2022-08-23T06:35:14.737Z,61.36
2022-08-23T06:36:04.202Z,60.33
2022-08-23T06:37:02.318Z,61.16
2022-08-23T06:38:03.250Z,62.81
2022-08-23T06:39:02.888Z,63.24
2022-08-23T06:40:02.319Z,64.04
2022-08-23T06:41:03.223Z,62.84
2022-08-23T06:42:02.228Z,63.57
2022-08-23T06:43:03.016Z,63.77
2022-08-23T06:44:02.209Z,61.85
2022-08-23T06:45:02.355Z,62.91
2022-08-23T06:46:02.220Z,62.51
2022-08-23T06:47:02.207Z,62.81
2022-08-23T06:48:02.543Z,63.87
2022-08-23T06:49:02.304Z,65.53
2022-08-23T06:50:02.124Z,66.06
2022-08-23T06:51:02.223Z,66.89
2022-08-23T06:52:02.089Z,68.32
2022-08-23T06:53:02.125Z,68.16
2022-08-23T06:54:04.038Z,69.96
2022-08-23T06:55:02.052Z,70.59
2022-08-23T06:56:02.043Z,70.83
2022-08-23T06:57:02.042Z,71.16
2022-08-23T06:58:02.854Z,71.66
2022-08-23T06:59:01.997Z,71.90
2022-08-23T07:00:02.913Z,72.30
2022-08-23T07:01:02.904Z,72.74
2022-08-23T07:02:02.811Z,73.24
2022-08-23T07:03:02.053Z,74.34
2022-08-23T07:04:01.895Z,74.74
2022-08-23T07:05:01.915Z,75.64
2022-08-23T07:06:02.856Z,75.74
2022-08-23T07:07:02.766Z,73.16
2022-08-23T07:08:01.866Z,69.96
2022-08-23T07:09:01.826Z,68.09
2022-08-23T07:10:01.877Z,67.43
2022-08-23T07:11:02.147Z,65.87
2022-08-23T07:12:01.871Z,65.11
2022-08-23T07:13:01.941Z,63.15
2022-08-23T07:14:01.957Z,63.32
2022-08-23T07:15:02.126Z,62.19
2022-08-23T07:16:01.909Z,60.97
2022-08-23T07:17:02.570Z,60.35
2022-08-23T07:18:01.723Z,59.62
2022-08-23T07:19:01.780Z,59.03
2022-08-23T07:20:01.691Z,58.30
2022-08-23T07:21:01.800Z,58.17
2022-08-23T07:22:01.931Z,57.21
2022-08-23T07:23:01.722Z,57.78
2022-08-23T07:24:01.742Z,58.17
2022-08-23T07:25:01.627Z,58.25
2022-08-23T07:26:01.612Z,58.12
2022-08-23T07:27:01.685Z,57.40
2022-08-23T07:28:01.885Z,56.21
2022-08-23T07:29:02.173Z,56.48
2022-08-23T07:30:01.836Z,55.39
2022-08-23T07:31:01.573Z,55.49
2022-08-23T07:32:01.703Z,54.07
2022-08-23T07:33:02.243Z,53.88
2022-08-23T07:34:01.485Z,54.47
2022-08-23T07:35:01.558Z,55.13
2022-08-23T07:36:01.492Z,54.24
2022-08-23T07:37:02.119Z,53.95
2022-08-23T07:38:01.658Z,53.45
2022-08-23T07:39:02.159Z,53.35
2022-08-23T07:40:01.546Z,53.65
2022-08-23T07:41:01.469Z,54.14
2022-08-23T07:42:01.418Z,54.05
2022-08-23T07:43:02.612Z,53.42
2022-08-23T07:44:01.356Z,53.82
2022-08-23T07:45:01.345Z,53.53
2022-08-23T07:46:01.423Z,54.10
2022-08-23T07:47:01.370Z,53.11
2022-08-23T07:48:01.911Z,53.40
2022-08-23T07:49:01.382Z,52.81
2022-08-23T07:50:01.294Z,52.14
2022-08-23T07:51:02.287Z,53.11
2022-08-23T07:52:02.023Z,52.78
2022-08-23T07:53:01.303Z,52.01
2022-08-23T07:54:03.169Z,52.58
2022-08-23T07:55:01.235Z,52.36
2022-08-23T07:56:03.282Z,51.99
2022-08-23T07:57:01.216Z,51.97
2022-08-23T07:58:01.329Z,52.36
2022-08-23T07:59:01.279Z,51.57
2022-08-23T08:00:01.129Z,51.18
2022-08-23T08:01:01.385Z,51.75
2022-08-23T08:02:02.198Z,50.76
2022-08-23T08:03:01.354Z,50.95
2022-08-23T08:04:01.898Z,50.83
2022-08-23T08:05:01.800Z,51.59
2022-08-23T08:06:01.972Z,50.41
2022-08-23T08:07:18.381Z,50.02
2022-08-23T08:08:02.269Z,49.82
2022-08-23T08:09:01.922Z,50.38
2022-08-23T08:10:01.835Z,50.09
2022-08-23T08:11:01.732Z,50.49
2022-08-23T08:12:01.893Z,49.33
2022-08-23T08:13:01.803Z,51.00
2022-08-23T08:14:01.706Z,50.88
2022-08-23T08:15:01.863Z,50.19
2022-08-23T08:16:00.938Z,49.43
2022-08-23T08:17:02.846Z,49.99
2022-08-23T08:18:02.064Z,50.19
2022-08-23T08:19:01.754Z,49.01
2022-08-23T08:20:01.636Z,49.50
2022-08-23T08:21:00.818Z,49.90
2022-08-23T08:22:00.820Z,49.99
2022-08-23T08:23:00.870Z,49.57
2022-08-23T08:24:01.768Z,50.14
2022-08-23T08:25:02.837Z,48.96
2022-08-23T08:26:01.572Z,49.35
2022-08-23T08:27:01.112Z,49.95
2022-08-23T08:28:01.814Z,49.82
2022-08-23T08:29:01.540Z,49.04
2022-08-23T08:30:01.708Z,48.83
2022-08-23T08:31:01.628Z,48.74
2022-08-23T08:32:01.510Z,48.74
2022-08-23T08:33:00.851Z,48.64
2022-08-23T08:34:01.067Z,47.95
2022-08-23T08:35:01.480Z,48.44
2022-08-23T08:36:02.350Z,48.91
2022-08-23T08:37:01.544Z,47.92
2022-08-23T08:38:01.445Z,48.49
2022-08-23T08:39:01.379Z,47.12
2022-08-23T08:40:01.576Z,47.39
2022-08-23T08:41:00.553Z,48.18
2022-08-23T08:42:04.765Z,48.45
2022-08-23T08:43:01.567Z,47.27
2022-08-23T08:44:00.516Z,47.96
2022-08-23T08:45:00.515Z,47.36
2022-08-23T08:46:01.455Z,46.48
2022-08-23T08:47:01.349Z,46.78
2022-08-23T08:48:01.358Z,45.89
2022-08-23T08:49:01.418Z,47.17
2022-08-23T08:50:01.358Z,47.36
2022-08-23T08:51:00.621Z,48.03
2022-08-23T08:52:01.381Z,47.83
2022-08-23T08:53:00.444Z,47.44
2022-08-23T08:54:01.193Z,45.97
2022-08-23T08:55:01.351Z,46.17
2022-08-23T08:56:01.339Z,46.26
2022-08-23T08:57:00.362Z,46.19
2022-08-23T08:58:00.537Z,46.58
2022-08-23T08:59:01.224Z,46.17
2022-08-23T09:00:01.141Z,46.19
2022-08-23T09:01:00.353Z,46.85
2022-08-23T09:02:01.267Z,46.26
2022-08-23T09:03:00.337Z,46.95
2022-08-23T09:04:01.267Z,46.66
2022-08-23T09:05:01.164Z,46.24
2022-08-23T09:06:01.066Z,46.17
2022-08-23T09:07:00.239Z,46.85
2022-08-23T09:08:01.022Z,46.17
2022-08-23T09:09:00.180Z,46.75
2022-08-23T09:10:00.932Z,47.13
2022-08-23T09:11:00.199Z,46.71
2022-08-23T09:12:01.000Z,45.80
2022-08-23T09:13:00.908Z,45.90
2022-08-23T09:14:00.186Z,45.70
2022-08-23T09:15:00.984Z,44.23
2022-08-23T09:16:00.278Z,44.45
2022-08-23T09:17:00.143Z,45.26
2022-08-23T09:18:00.356Z,46.04
2022-08-23T09:19:00.065Z,46.04
2022-08-23T09:20:01.010Z,46.51
2022-08-23T09:21:00.064Z,45.70
2022-08-23T09:22:00.006Z,45.90
2022-08-23T09:23:00.052Z,45.59
2022-08-23T09:24:01.058Z,45.05
2022-08-23T09:25:00.775Z,42.60
2022-08-23T09:26:03.499Z,43.48
2022-08-23T09:27:00.836Z,44.83
2022-08-23T09:28:00.123Z,43.66
2022-08-23T09:29:00.941Z,44.24
2022-08-23T09:29:59.938Z,44.34
2022-08-23T09:31:00.762Z,44.15
2022-08-23T09:32:00.875Z,43.05
2022-08-23T09:33:01.284Z,43.07
2022-08-23T09:33:59.899Z,43.46
2022-08-23T09:34:59.871Z,43.48
2022-08-23T09:36:00.740Z,43.95
2022-08-23T09:37:00.649Z,44.52
2022-08-23T09:38:00.948Z,42.93
2022-08-23T09:38:59.842Z,42.07
2022-08-23T09:39:59.834Z,42.56
2022-08-23T09:40:59.774Z,43.52
2022-08-23T09:42:01.853Z,42.91
2022-08-23T09:42:59.955Z,43.10
2022-08-23T09:43:59.766Z,42.22
2022-08-23T09:45:00.660Z,42.52
2022-08-23T09:46:00.566Z,42.32
2022-08-23T09:47:00.473Z,42.79
2022-08-23T09:47:59.786Z,41.25
2022-08-23T09:48:59.674Z,41.23
2022-08-23T09:50:00.428Z,41.15
2022-08-23T09:50:59.700Z,41.66
2022-08-23T09:51:59.658Z,41.36
2022-08-23T09:53:04.429Z,41.46
2022-08-23T09:53:59.610Z,40.95
2022-08-23T09:55:00.449Z,41.27
2022-08-23T09:56:00.360Z,42.25
2022-08-23T09:56:59.598Z,40.88
2022-08-23T09:58:00.421Z,41.09
2022-08-23T09:58:59.654Z,40.21
2022-08-23T09:59:59.574Z,42.44
2022-08-23T10:01:00.393Z,41.64
2022-08-23T10:02:00.365Z,40.86
2022-08-23T10:02:59.656Z,42.13
2022-08-23T10:03:59.503Z,41.25
2022-08-23T10:04:59.729Z,42.79
2022-08-23T10:06:00.424Z,40.66
2022-08-23T10:06:59.451Z,41.15
2022-08-23T10:07:59.711Z,41.15
2022-08-23T10:08:59.667Z,41.72
2022-08-23T10:10:00.300Z,40.62
2022-08-23T10:11:00.230Z,41.21
2022-08-23T10:11:59.378Z,40.23
2022-08-23T10:13:00.420Z,39.92
2022-08-23T10:13:59.379Z,39.28
2022-08-23T10:14:59.358Z,39.78
2022-08-23T10:15:59.389Z,40.58
2022-08-23T10:16:59.329Z,39.72
2022-08-23T10:17:59.309Z,41.07
2022-08-23T10:18:59.361Z,40.76
2022-08-23T10:19:59.586Z,39.37
2022-08-23T10:20:59.511Z,41.03
2022-08-23T10:21:59.632Z,39.78
2022-08-23T10:23:00.075Z,39.70
2022-08-23T10:24:00.040Z,39.51
2022-08-23T10:24:59.213Z,40.31
2022-08-23T10:25:59.215Z,41.41
2022-08-23T10:26:59.183Z,40.01
2022-08-23T10:27:59.316Z,39.23
2022-08-23T10:29:00.008Z,40.03
2022-08-23T10:29:59.256Z,41.00
2022-08-23T10:31:00.216Z,40.09
2022-08-23T10:31:59.463Z,40.17
2022-08-23T10:32:59.104Z,39.59
2022-08-23T10:34:00.042Z,39.39
2022-08-23T10:34:59.116Z,38.98
2022-08-23T10:35:59.177Z,37.52
2022-08-23T10:36:59.039Z,38.71
2022-08-23T10:37:59.054Z,36.85
2022-08-23T10:38:59.409Z,37.43
2022-08-23T10:40:03.762Z,38.49
2022-08-23T10:40:59.101Z,38.96
2022-08-23T10:41:59.018Z,38.77
2022-08-23T10:43:00.060Z,37.79
2022-08-23T10:43:59.249Z,37.09
2022-08-23T10:44:58.985Z,37.21
2022-08-23T10:46:00.670Z,38.79
2022-08-23T10:46:58.915Z,39.16
2022-08-23T10:47:59.820Z,38.45
2022-08-23T10:48:59.182Z,37.09
2022-08-23T10:49:59.192Z,37.29
2022-08-23T10:50:58.896Z,38.24
2022-08-23T10:51:58.855Z,36.88
2022-08-23T10:52:59.768Z,38.24
2022-08-23T10:53:59.210Z,37.85
2022-08-23T10:54:59.830Z,38.12
2022-08-23T10:56:00.861Z,38.87
2022-08-23T10:56:58.836Z,38.65
2022-08-23T10:58:00.290Z,36.61
2022-08-23T10:58:59.688Z,36.32
2022-08-23T10:59:59.590Z,36.80
2022-08-23T11:00:58.790Z,35.93
2022-08-23T11:01:59.184Z,35.53
2022-08-23T11:02:59.186Z,34.47
2022-08-23T11:03:59.461Z,36.61
2022-08-23T11:04:58.792Z,35.81
2022-08-23T11:05:58.765Z,36.00
2022-08-23T11:06:58.747Z,35.34
2022-08-23T11:07:58.683Z,35.53
2022-08-23T11:08:58.844Z,36.43
2022-08-23T11:09:59.394Z,35.26
2022-08-23T11:10:59.555Z,35.26
2022-08-23T11:11:59.026Z,33.72
2022-08-23T11:12:58.648Z,34.42
2022-08-23T11:13:58.736Z,36.96
2022-08-23T11:14:58.622Z,36.25
2022-08-23T11:15:58.690Z,35.55
2022-08-23T11:16:58.570Z,34.31
2022-08-23T11:18:00.168Z,34.59
2022-08-23T11:18:59.008Z,34.31
2022-08-23T11:19:59.182Z,34.29
2022-08-23T11:20:59.139Z,33.90
2022-08-23T11:21:59.268Z,34.68
2022-08-23T11:22:58.497Z,35.26
2022-08-23T11:23:59.356Z,34.27
2022-08-23T11:24:59.112Z,34.66
2022-08-23T11:25:58.451Z,34.17
2022-08-23T11:27:01.690Z,34.08
2022-08-23T11:27:59.442Z,35.13
2022-08-23T11:28:59.374Z,35.70
2022-08-23T11:29:58.451Z,34.63
2022-08-23T11:30:58.549Z,34.25
2022-08-23T11:31:58.451Z,35.21
2022-08-23T11:32:58.372Z,34.03
2022-08-23T11:33:58.524Z,33.54
2022-08-23T11:35:00.267Z,32.97
2022-08-23T11:35:58.623Z,35.02
2022-08-23T11:36:58.356Z,34.92
2022-08-23T11:38:03.956Z,33.07
2022-08-23T11:38:59.527Z,33.85
2022-08-23T11:39:58.458Z,33.75
2022-08-23T11:40:58.339Z,33.83
2022-08-23T11:41:58.406Z,33.25
2022-08-23T11:42:58.269Z,33.06
2022-08-23T11:43:59.218Z,33.99
2022-08-23T11:44:58.216Z,33.88
2022-08-23T11:45:59.044Z,33.76
2022-08-23T11:46:59.577Z,32.89
2022-08-23T11:47:59.079Z,31.71
2022-08-23T11:48:58.268Z,32.60
2022-08-23T11:49:58.891Z,31.82
2022-08-23T11:50:59.653Z,31.34
2022-08-23T11:52:00.071Z,31.55
2022-08-23T11:52:58.123Z,31.57
2022-08-23T11:53:59.108Z,32.44
2022-08-23T11:54:58.240Z,32.64
2022-08-23T11:55:58.364Z,33.80
2022-08-23T11:56:58.453Z,33.81
2022-08-23T11:57:58.504Z,32.84
2022-08-23T11:58:58.449Z,33.83
2022-08-23T11:59:58.477Z,33.64
2022-08-23T12:00:57.987Z,33.12
2022-08-23T12:01:58.757Z,32.05
2022-08-23T12:02:58.075Z,32.18
2022-08-23T12:03:58.060Z,33.44
2022-08-23T12:04:58.137Z,33.23
2022-08-23T12:05:58.890Z,32.39
2022-08-23T12:06:58.059Z,33.07
2022-08-23T12:07:58.407Z,32.87
2022-08-23T12:08:59.843Z,33.06
2022-08-23T12:09:57.964Z,32.54
2022-08-23T12:10:58.169Z,33.69
2022-08-23T12:11:59.271Z,31.82
2022-08-23T12:12:59.183Z,31.53
2022-08-23T12:13:58.043Z,30.85
2022-08-23T12:14:58.413Z,31.45
2022-08-23T12:15:58.139Z,30.87
2022-08-23T12:16:58.593Z,31.45
2022-08-23T12:17:59.313Z,31.45
2022-08-23T12:18:59.096Z,31.66
2022-08-23T12:20:00.489Z,31.68
2022-08-23T12:20:58.895Z,32.34
2022-08-23T12:21:57.758Z,31.08
2022-08-23T12:22:57.804Z,31.08
2022-08-23T12:24:01.343Z,31.45
2022-08-23T12:24:58.937Z,30.95
2022-08-23T12:25:58.424Z,31.42
2022-08-23T12:26:58.418Z,31.13
2022-08-23T12:27:57.731Z,30.55
2022-08-23T12:28:57.988Z,30.27
2022-08-23T12:29:58.380Z,31.04
2022-08-23T12:30:57.700Z,30.57
2022-08-23T12:31:58.791Z,31.16
2022-08-23T12:32:58.732Z,30.19
2022-08-23T12:33:57.656Z,30.77
2022-08-23T12:34:58.404Z,31.84
2022-08-23T12:35:57.612Z,30.57
2022-08-23T12:36:57.823Z,31.05
2022-08-23T12:37:57.585Z,31.05
2022-08-23T12:38:58.033Z,30.08
2022-08-23T12:39:57.651Z,29.68
2022-08-23T12:40:58.368Z,28.90
2022-08-23T12:41:57.503Z,29.88
2022-08-23T12:42:57.554Z,30.85
2022-08-23T12:43:57.485Z,29.79
2022-08-23T12:44:59.429Z,30.95
2022-08-23T12:45:57.501Z,30.65
2022-08-23T12:46:57.458Z,30.26
2022-08-23T12:47:57.467Z,31.01
2022-08-23T12:48:57.399Z,30.31
2022-08-23T12:49:57.441Z,29.52
2022-08-23T12:50:57.700Z,30.41
2022-08-23T12:51:57.369Z,29.52
2022-08-23T12:52:58.299Z,29.91
2022-08-23T12:53:58.148Z,30.07
2022-08-23T12:54:57.389Z,29.47
2022-08-23T12:55:57.322Z,28.78
2022-08-23T12:56:59.353Z,29.16
2022-08-23T12:57:57.312Z,29.55
2022-08-23T12:58:58.155Z,28.87
2022-08-23T13:00:01.959Z,28.69
2022-08-23T13:00:58.411Z,29.28
2022-08-23T13:01:57.420Z,29.28
2022-08-23T13:02:57.440Z,30.05
2022-08-23T13:03:57.282Z,28.61
2022-08-23T13:04:58.083Z,29.19
2022-08-23T13:05:57.201Z,27.36
2022-08-23T13:06:58.434Z,28.07
2022-08-23T13:07:57.531Z,27.78
2022-08-23T13:08:57.177Z,28.36
2022-08-23T13:09:57.147Z,29.33
2022-08-23T13:10:58.883Z,28.55
2022-08-23T13:11:57.927Z,28.92
2022-08-23T13:12:58.155Z,28.36
2022-08-23T13:13:57.116Z,29.15
2022-08-23T13:14:57.136Z,29.64
2022-08-23T13:15:57.421Z,30.62
2022-08-23T13:16:57.122Z,30.21
2022-08-23T13:17:57.136Z,30.20
2022-08-23T13:18:58.028Z,30.60
2022-08-23T13:19:57.099Z,29.91
2022-08-23T13:20:57.089Z,30.11
2022-08-23T13:21:57.369Z,29.94
2022-08-23T13:22:58.027Z,30.13
2022-08-23T13:23:56.981Z,30.91
2022-08-23T13:25:17.597Z,30.02
2022-08-23T13:25:58.890Z,29.52
2022-08-23T13:26:57.764Z,29.91
2022-08-23T13:27:57.003Z,29.81
2022-08-23T13:28:57.833Z,30.15
2022-08-23T13:29:57.734Z,31.41
2022-08-23T13:30:57.719Z,30.15
2022-08-23T13:32:02.066Z,30.55
2022-08-23T13:32:57.921Z,29.77
2022-08-23T13:37:03.078Z,30.71
2022-08-23T13:38:01.582Z,30.02
2022-08-23T13:39:00.691Z,29.44
2022-08-23T13:40:00.796Z,29.16
2022-08-23T13:41:01.544Z,28.96
2022-08-23T13:42:01.450Z,28.87
2022-08-23T13:43:00.608Z,30.42
2022-08-23T13:44:01.509Z,29.37
2022-08-23T13:45:01.509Z,29.50
2022-08-23T13:46:01.509Z,30.38
2022-08-23T13:47:01.392Z,30.69